Thursday, March 05, 2015
14:29 UTC
  |  Log In   |  Register Free
Airport Search:

Alpena County Regional Airport
(KAPN)

FAA data valid effective January 08, 2015 - March 05, 2015 (unless otherwise noted).

 
 
 
 
 
 
 
 
 
 
 
 
 
 

Current Aviation Weather for Alpena County Regional Airport (KAPN)

The most recent METAR observation for KAPN was updated at: 1407
METAR Summary (Translated METAR)
KAPN
051354Z AUTO 26003KT 10SM CLR M17/M21 A3037 RMK AO2 SLP301 T11721211
KPZQ
051354Z AUTO 25005KT 10SM OVC030 M17/M20 A3037 RMK AO2 T11731201
(22.5 nm NW from KAPN)
KOSC
051353Z AUTO 32008KT 10SM CLR M16/M21 A3037 RMK AO2 T11681214
(38.3 nm SE from KAPN)
TAF Summary (Translated TAF)
KAPN
051144Z 0512/0612 27005KT P6SM SCT035 FM051600 28008KT P6SM SCT035 FM060200 23005KT P6SM SKC
  Airport Weather Conditions for KAPN

 Current Weather at APN
1° F
Fair
West winds at 3.5 mph
APN NOAA Radar

Pressure: 30.37 in
Humidity: 72%
Wind: West at 3.5 MPH (3 KT)
Dew Point: -6.0°F
Visibility: 10.00 mi


Airport Weather Forecast for KAPN

Translated METAR and TAF for KAPN
Translated METAR for KAPN (1429 UTC 05 March 2015)
found at http://aviationweather.gov/adds/metars/
 
METAR text: KAPN 051354Z AUTO 26003KT 10SM CLR M17/M21 A3037 RMK AO2 SLP301 T11721211
Conditions at: KAPN (ALPENA , MI, US) observed 1354 UTC 05 March 2015
Temperature: -17.2°C (1°F)
Dewpoint: -21.1°C (-6°F) [RH = 72%]
Pressure (altimeter): 30.37 inches Hg (1028.5 mb)
[Sea-level pressure: 1030.1 mb]
Winds: from the W (260 degrees) at 3 MPH (3 knots; 1.6 m/s)
Visibility: 10 or more miles (16+ km)
Ceiling: at least 12,000 feet AGL
Clouds: sky clear below 12,000 feet AGL
Weather: automated observation with no human augmentation;
there may or may not be significant weather present at this time
Translated TAF for KAPN
Forecast for: KAPN (ALPENA , MI, US)
TAF Text: KAPN 051144Z 0512/0612 27005KT P6SM SCT035
Forecast period: 1200 to 1600 UTC 05 March 2015
Forecast type: FROM: standard forecast or significant change
Winds: from the W (270 degrees) at 6 MPH (5 knots; 2.6 m/s)
Visibility: 6 or more miles (10+ km)
Clouds: scattered clouds at 3500 feet AGL
Weather: no significant weather forecast for this period
TAF Text: FM051600 28008KT P6SM SCT035
Forecast period: 1600 UTC 05 March 2015 to 0200 UTC 06 March 2015
Forecast type: FROM: standard forecast or significant change
Winds: from the W (280 degrees) at 9 MPH (8 knots; 4.2 m/s)
Visibility: 6 or more miles (10+ km)
Clouds: scattered clouds at 3500 feet AGL
Weather: no significant weather forecast for this period
TAF Text: FM060200 23005KT P6SM SKC
Forecast period: 0200 to 1200 UTC 06 March 2015
Forecast type: FROM: standard forecast or significant change
Winds: from the SW (230 degrees) at 6 MPH (5 knots; 2.6 m/s)
Visibility: 6 or more miles (10+ km)
Clouds: clear skies
Weather: no significant weather forecast for this period

Find All Airport Services Find A Hotel Find A Rental Car Find A Golf Course Find A Restaurant $100 Hamburger



FBO's on the Field
FBO Company Facility Photos Services Transportation Aviation Fuel Prices: Prices include tax
Catering Weather Repair Courtesy Rental Type 100LL JetA JetA+ MOGAS 8087
 
Aviation Express Inc.

Currently rated 1.2 by 1 person
FS:Shell
Last Updated: Mar-03
Login to update fuel prices
SS:
Contact Aviation Express Inc.More FBO Information
 
Aviation North

This FBO has not yet been rated
FS:Avfuel
Last Updated: Feb-16
Login to update fuel prices
SS:
Contact Aviation NorthMore FBO Information
 
Add another FBO Facility Photos Catering Weather Repair Courtesy Rental Type 100LL JetA JetA+ MOGAS 8087
Services Transportation Aviation Fuel Prices: Prices include tax


model-print
model-print
model-print
model-print